Time;durP1;ratioP1;P1;durP2;ratioP2;P2;SDS_P1;SDS_P2;PMS_P1;PMS_P2;Temp;Humidity;BMP_temperature;BMP_pressure;BME280_temperature;BME280_humidity;BME280_pressure;Samples;Min_cycle;Max_cycle;Signal;HPM_P1;HPM_P2
2022/12/19 00:01:17;;;;;;;21.33;7.93;;;;;;;-144.47;74.51;61873.28;4954715;28;20046;-63
2022/12/19 00:03:44;;;;;;;13.18;7.25;;;;;;;-144.47;74.71;61917.09;4958404;28;20053;-67
2022/12/19 00:06:09;;;;;;;23.52;8.07;;;;;;;-144.47;74.38;61891.22;4953346;28;20038;-66
2022/12/19 00:08:35;;;;;;;18.13;8.27;;;;;;;-144.47;74.61;61923.06;4955117;28;20113;-67
2022/12/19 00:11:01;;;;;;;20.55;9.00;;;;;;;-144.47;74.86;61881.25;4959929;28;20562;-63
2022/12/19 00:13:31;;;;;;;17.83;7.70;;;;;;;-144.47;74.89;61893.19;4949951;28;20098;-66
2022/12/19 00:16:04;;;;;;;22.75;7.95;;;;;;;-144.47;75.29;61939.00;4947626;28;20107;-65
2022/12/19 00:18:29;;;;;;;16.40;7.32;;;;;;;-144.47;74.60;61899.16;4950306;28;20031;-64
2022/12/19 00:21:03;;;;;;;17.83;8.00;;;;;;;-144.47;74.72;61917.09;4954962;28;20617;-67
2022/12/19 00:23:30;;;;;;;22.27;8.13;;;;;;;-144.47;74.76;61907.13;4953095;28;20027;-67
2022/12/19 00:26:14;;;;;;;19.55;8.30;;;;;;;-144.47;74.51;61941.00;4952497;28;20146;-67
2022/12/19 00:28:45;;;;;;;19.25;7.00;;;;;;;-144.47;74.31;61944.97;4955526;28;20030;-67
2022/12/19 00:31:11;;;;;;;20.00;7.28;;;;;;;-144.47;74.54;61944.97;4975385;28;20048;-65
2022/12/19 00:33:37;;;;;;;17.65;7.55;;;;;;;-144.47;74.40;61942.97;4950606;28;20397;-67
2022/12/19 00:36:05;;;;;;;19.20;6.97;;;;;;;-144.47;74.52;61909.13;4953041;28;20027;-68
2022/12/19 00:38:31;;;;;;;17.88;7.25;;;;;;;-144.47;74.62;61931.03;4951984;28;20158;-68
2022/12/19 00:41:13;;;;;;;20.55;8.43;;;;;;;-144.47;74.78;61958.91;4951290;28;20134;-64
2022/12/19 00:43:40;;;;;;;20.45;7.90;;;;;;;-144.47;74.89;61946.97;4971685;28;20033;-65
2022/12/19 00:46:07;;;;;;;24.25;8.25;;;;;;;-144.47;74.70;61946.97;4973015;28;20590;-66
2022/12/19 00:48:33;;;;;;;17.83;7.15;;;;;;;-144.47;74.61;61929.03;4961878;28;20035;-65
2022/12/19 00:51:11;;;;;;;23.35;8.15;;;;;;;-144.47;74.40;61913.09;4953212;28;20031;-66
2022/12/19 00:53:37;;;;;;;16.40;7.00;;;;;;;-144.47;74.70;61935.00;4946565;28;20027;-66
2022/12/19 00:56:05;;;;;;;20.48;8.15;;;;;;;-144.47;74.68;61935.00;4953370;28;20023;-66
2022/12/19 00:58:30;;;;;;;18.35;7.57;;;;;;;-144.47;74.54;61937.00;4952351;28;20023;-64
2022/12/19 01:00:56;;;;;;;17.50;7.63;;;;;;;-144.47;74.62;61952.94;4953374;28;20421;-67
2022/12/19 01:03:22;;;;;;;20.13;7.25;;;;;;;-144.47;74.75;61954.94;4952757;28;20450;-67
2022/12/19 01:05:49;;;;;;;23.45;9.60;;;;;;;-144.47;74.77;61946.97;4953453;28;20482;-64
2022/12/19 01:08:18;;;;;;;15.02;7.00;;;;;;;-144.47;74.32;61976.84;4968408;28;20042;-66
2022/12/19 01:10:48;;;;;;;18.40;8.68;;;;;;;-144.47;74.44;61968.88;4974006;28;20023;-67
2022/12/19 01:13:17;;;;;;;18.98;7.90;;;;;;;-144.47;74.17;61937.00;4978788;28;20051;-67
2022/12/19 01:15:42;;;;;;;20.60;7.65;;;;;;;-144.47;74.19;61954.94;4967877;28;20026;-67
2022/12/19 01:18:09;;;;;;;17.40;8.05;;;;;;;-144.47;74.14;61988.78;4962106;28;20023;-66
2022/12/19 01:20:41;;;;;;;24.50;9.23;;;;;;;-144.47;73.92;61980.81;4952355;28;20357;-68
2022/12/19 01:23:07;;;;;;;27.73;9.73;;;;;;;-144.47;73.83;62002.72;4951081;28;20449;-67
2022/12/19 01:25:34;;;;;;;19.02;7.63;;;;;;;-144.47;73.81;62000.75;4952465;28;20417;-65
2022/12/19 01:28:00;;;;;;;15.20;7.57;;;;;;;-144.47;74.18;61980.81;4971541;28;20038;-68
2022/12/19 01:30:26;;;;;;;23.02;8.35;;;;;;;-144.47;74.07;61972.84;4958904;28;20118;-67
2022/12/19 01:32:51;;;;;;;18.50;7.82;;;;;;;-144.47;74.26;61968.88;4963820;28;20035;-66
2022/12/19 01:35:17;;;;;;;18.52;7.93;;;;;;;-144.47;74.37;61956.91;4965012;28;20066;-67
2022/12/19 01:37:42;;;;;;;18.90;8.40;;;;;;;-144.47;74.32;61990.78;4950985;28;20110;-65
2022/12/19 01:40:10;;;;;;;25.08;8.82;;;;;;;-144.47;74.12;61994.75;4952162;28;20085;-68
2022/12/19 01:42:36;;;;;;;24.17;9.60;;;;;;;-144.47;73.87;62016.66;4959567;28;20030;-67
2022/12/19 01:45:07;;;;;;;24.55;9.82;;;;;;;-144.47;73.45;62000.75;4970546;28;20030;-67
2022/12/19 01:48:04;;;;;;;28.65;10.15;;;;;;;-144.47;72.83;61976.84;4951207;28;20218;-65
2022/12/19 01:51:00;;;;;;;31.75;9.35;;;;;;;-144.47;72.08;62002.72;4955611;28;20027;-68
2022/12/19 01:53:30;;;;;;;22.70;8.45;;;;;;;-144.47;71.65;61994.75;4949726;28;20039;-68
2022/12/19 01:55:56;;;;;;;20.98;7.40;;;;;;;-144.47;70.68;61968.88;4961868;28;20485;-68
2022/12/19 01:58:22;;;;;;;15.93;6.85;;;;;;;-144.47;69.12;61952.94;4967251;28;20110;-67
2022/12/19 02:00:48;;;;;;;20.45;7.70;;;;;;;-144.47;67.88;61937.00;4961004;28;20047;-65
2022/12/19 02:03:18;;;;;;;18.02;7.78;;;;;;;-144.47;67.05;61958.91;4954555;28;20063;-65
2022/12/19 02:05:44;;;;;;;18.30;7.45;;;;;;;-144.47;65.87;61923.06;4960739;28;20034;-67
2022/12/19 02:08:09;;;;;;;24.25;8.23;;;;;;;-144.47;65.03;61919.09;4950447;28;20024;-67
2022/12/19 02:10:35;;;;;;;17.23;7.18;;;;;;;-144.47;64.16;61905.16;4951498;28;20031;-67
2022/12/19 02:13:01;;;;;;;17.45;6.90;;;;;;;-144.47;62.55;61869.31;4955785;28;20054;-68
2022/12/19 02:15:32;;;;;;;15.18;5.18;;;;;;;-144.47;62.08;61837.44;4960576;28;20030;-68
2022/12/19 02:18:03;;;;;;;16.35;5.93;;;;;;;-144.47;60.99;61849.38;4950464;28;20115;-66
2022/12/19 02:20:28;;;;;;;15.50;5.78;;;;;;;-144.47;59.82;61785.66;4951837;28;20085;-68
2022/12/19 02:23:14;;;;;;;14.80;6.32;;;;;;;-144.47;59.51;61809.56;4950292;28;20031;-66
2022/12/19 02:25:58;;;;;;;15.00;5.45;;;;;;;-144.47;59.74;61803.59;4965158;28;20029;-68
2022/12/19 02:28:52;;;;;;;15.85;6.07;;;;;;;-144.47;59.44;61791.63;4960425;28;20035;-68
2022/12/19 02:31:31;;;;;;;13.98;6.18;;;;;;;-144.47;59.30;61807.56;4947486;28;20046;-68
2022/12/19 02:34:11;;;;;;;;;;;;;;;-144.47;59.07;61819.50;4951273;28;20110;-67
2022/12/19 02:36:44;;;;;;;14.57;5.05;;;;;;;-144.47;58.88;61761.75;4950824;28;20017;-66
2022/12/19 02:39:16;;;;;;;18.27;6.85;;;;;;;-144.47;58.36;61779.69;4950383;28;20077;-67
2022/12/19 02:41:49;;;;;;;15.32;5.43;;;;;;;-144.47;57.88;61749.81;4964421;28;20549;-68
2022/12/19 02:44:48;;;;;;;14.13;5.40;;;;;;;-144.47;56.96;61751.81;4938406;28;20027;-68
2022/12/19 02:47:15;;;;;;;17.58;6.45;;;;;;;-144.47;56.23;61723.94;4950505;28;20027;-67
2022/12/19 02:49:41;;;;;;;13.77;5.43;;;;;;;-144.47;54.94;61694.06;4955020;28;20405;-65
2022/12/19 02:52:18;;;;;;;15.55;5.97;;;;;;;-144.47;54.72;61670.16;4950419;28;20486;-67
2022/12/19 02:54:46;;;;;;;20.63;5.88;;;;;;;-144.47;54.62;61686.09;4950385;28;20046;-66
2022/12/19 02:57:12;;;;;;;19.48;6.78;;;;;;;-144.47;54.43;61644.28;4950875;28;20057;-65
2022/12/19 03:00:09;;;;;;;17.70;5.65;;;;;;;-144.47;53.94;61636.31;4951244;28;20545;-67
2022/12/19 03:02:46;;;;;;;20.92;6.25;;;;;;;-144.47;54.20;61636.31;4955533;28;20039;-67
2022/12/19 03:05:23;;;;;;;16.10;7.10;;;;;;;-144.47;54.72;61640.28;4964208;28;20027;-67
2022/12/19 03:08:05;;;;;;;17.52;6.72;;;;;;;-144.47;54.57;61622.38;4949575;28;20027;-67
2022/12/19 03:10:39;;;;;;;17.88;6.20;;;;;;;-144.47;54.92;61634.31;4941844;28;20111;-68
2022/12/19 03:13:10;;;;;;;20.95;7.82;;;;;;;-144.47;55.42;61662.19;4950942;28;20033;-69
2022/12/19 03:15:36;;;;;;;19.63;6.43;;;;;;;-144.47;56.12;61632.31;4950916;28;20027;-66
2022/12/19 03:18:02;;;;;;;19.67;7.20;;;;;;;-144.47;56.26;61612.41;4955146;28;20580;-67
2022/12/19 03:20:28;;;;;;;21.23;6.72;;;;;;;-144.47;57.11;61624.38;4968378;28;20027;-67
2022/12/19 03:22:53;;;;;;;18.08;7.53;;;;;;;-144.47;57.75;61638.31;4950617;28;20038;-65
2022/12/19 03:25:20;;;;;;;18.40;7.07;;;;;;;-144.47;57.54;61622.38;4961717;28;20150;-67
2022/12/19 03:27:49;;;;;;;19.52;7.13;;;;;;;-144.47;57.91;61622.38;4956699;28;20062;-66
2022/12/19 03:30:14;;;;;;;20.75;7.97;;;;;;;-144.47;57.67;61636.31;4958597;28;20027;-66
2022/12/19 03:32:43;;;;;;;19.92;7.85;;;;;;;-144.47;58.38;61630.34;4964071;28;20034;-67
2022/12/19 03:35:30;;;;;;;21.40;6.45;;;;;;;-144.47;58.11;61634.31;4950702;28;20090;-67
2022/12/19 03:38:03;;;;;;;25.17;8.68;;;;;;;-144.47;58.83;61630.34;5010024;23;20042;-68
2022/12/19 03:40:31;;;;;;;24.25;8.32;;;;;;;-144.47;58.97;61654.22;5006836;28;20072;-67
2022/12/19 03:43:07;;;;;;;21.98;7.97;;;;;;;-144.47;59.26;61652.25;5007492;28;20022;-68
2022/12/19 03:45:46;;;;;;;23.08;7.70;;;;;;;-144.47;59.12;61610.41;5005004;28;20068;-67
2022/12/19 03:48:22;;;;;;;15.85;7.40;;;;;;;-144.47;59.37;61654.22;5006125;28;20047;-64
2022/12/19 03:50:59;;;;;;;17.80;7.32;;;;;;;-144.47;59.23;61654.22;4994822;28;20030;-68
2022/12/19 03:53:47;;;;;;;19.15;7.18;;;;;;;-144.47;59.95;61646.25;5001873;28;20433;-64
2022/12/19 03:56:43;;;;;;;24.10;7.75;;;;;;;-144.47;59.82;61682.09;5008189;28;20438;-65
2022/12/19 03:59:29;;;;;;;20.13;7.13;;;;;;;-144.47;60.32;61654.22;5000451;28;20268;-67
2022/12/19 04:01:56;;;;;;;20.48;7.20;;;;;;;-144.47;60.52;61638.31;5011061;28;20026;-65
2022/12/19 04:04:24;;;;;;;19.05;7.68;;;;;;;-144.47;60.82;61642.28;5010619;28;20025;-68
2022/12/19 04:06:50;;;;;;;17.25;6.93;;;;;;;-144.47;60.52;61644.28;5010053;28;20026;-69
2022/12/19 04:09:19;;;;;;;20.67;7.95;;;;;;;-144.47;60.61;61636.31;5024539;28;20049;-66
2022/12/19 04:11:50;;;;;;;33.15;7.90;;;;;;;-144.47;60.64;61614.41;5011602;28;20030;-66
2022/12/19 04:14:25;;;;;;;19.02;7.95;;;;;;;-144.47;60.56;61608.44;5010481;28;20042;-66
2022/12/19 04:17:08;;;;;;;25.00;8.57;;;;;;;-144.47;60.76;61618.38;5010624;28;20026;-69
2022/12/19 04:19:52;;;;;;;24.35;9.40;;;;;;;-144.47;60.40;61634.31;5010018;28;20034;-68
2022/12/19 04:22:51;;;;;;;29.60;10.27;;;;;;;-144.47;61.09;61640.28;5006184;28;20507;-69
2022/12/19 04:25:22;;;;;;;26.65;8.82;;;;;;;-144.47;60.81;61664.19;5001622;28;20390;-64
2022/12/19 04:27:55;;;;;;;23.48;8.90;;;;;;;-144.47;60.90;61646.25;5009349;28;20018;-68
2022/12/19 04:30:21;;;;;;;26.73;9.93;;;;;;;-144.47;61.21;61634.31;5010320;28;20021;-67
2022/12/19 04:32:47;;;;;;;22.63;9.20;;;;;;;-144.47;61.16;61622.38;5009009;28;20113;-70
2022/12/19 04:35:12;;;;;;;24.00;8.32;;;;;;;-144.47;61.36;61622.38;5011123;28;20499;-69
2022/12/19 04:37:38;;;;;;;25.30;8.00;;;;;;;-144.47;61.60;61618.38;5009313;28;20056;-65
2022/12/19 04:40:05;;;;;;;24.42;9.80;;;;;;;-144.47;61.96;61630.34;5010477;28;20034;-69
2022/12/19 04:42:30;;;;;;;22.98;8.30;;;;;;;-144.47;62.41;61622.38;5010634;28;20044;-67
2022/12/19 04:44:56;;;;;;;24.17;8.43;;;;;;;-144.47;62.68;61636.31;5010078;28;20431;-69
2022/12/19 04:47:21;;;;;;;21.27;7.72;;;;;;;-144.47;63.17;61606.44;5024567;28;20124;-67
2022/12/19 04:49:47;;;;;;;21.27;8.40;;;;;;;-144.47;63.51;61592.50;5010022;28;20026;-67
2022/12/19 04:52:12;;;;;;;29.45;8.60;;;;;;;-144.47;63.69;61616.41;5010314;28;20678;-68
2022/12/19 04:54:37;;;;;;;37.90;9.35;;;;;;;-144.47;64.12;61634.31;5010905;28;20554;-65
2022/12/19 04:57:03;;;;;;;26.15;8.32;;;;;;;-144.47;64.07;61654.22;4995950;28;20441;-68
2022/12/19 04:59:28;;;;;;;20.63;8.40;;;;;;;-144.47;63.71;61624.38;5002614;28;20049;-68
2022/12/19 05:01:53;;;;;;;19.23;9.55;;;;;;;-144.47;64.09;61634.31;5007837;28;20034;-67
2022/12/19 05:04:19;;;;;;;30.48;10.43;;;;;;;-144.47;63.95;61604.44;5010619;28;20121;-65
2022/12/19 05:06:44;;;;;;;26.60;9.45;;;;;;;-144.47;63.78;61608.44;5021418;28;20113;-67
2022/12/19 05:09:10;;;;;;;24.95;9.35;;;;;;;-144.47;63.41;61618.38;5000791;28;20167;-68
2022/12/19 05:11:36;;;;;;;29.85;8.88;;;;;;;-144.47;63.02;61576.56;5009566;28;20053;-67
2022/12/19 05:14:02;;;;;;;24.52;9.55;;;;;;;-144.47;62.50;61604.44;5001888;28;20036;-69
2022/12/19 05:16:28;;;;;;;20.75;8.52;;;;;;;-144.47;62.66;61630.34;5010504;28;20022;-67
2022/12/19 05:18:53;;;;;;;28.67;9.50;;;;;;;-144.47;62.43;61590.50;5001298;28;20633;-70
2022/12/19 05:21:20;;;;;;;24.55;9.48;;;;;;;-144.47;63.01;61598.47;5007881;28;20097;-67
2022/12/19 05:23:46;;;;;;;23.75;9.15;;;;;;;-144.47;62.28;61614.41;5000621;28;20484;-69
2022/12/19 05:26:12;;;;;;;29.40;11.02;;;;;;;-144.47;62.56;61618.38;4997733;28;20025;-71
2022/12/19 05:28:37;;;;;;;33.50;10.48;;;;;;;-144.47;62.68;61610.41;5006139;28;20138;-69
2022/12/19 05:31:12;;;;;;;26.00;9.00;;;;;;;-144.47;62.88;61608.44;5004257;28;20022;-69
2022/12/19 05:33:39;;;;;;;25.85;8.68;;;;;;;-144.47;62.25;61602.47;5005166;28;20113;-64
2022/12/19 05:36:07;;;;;;;35.42;9.77;;;;;;;-144.47;61.99;61604.44;5004979;28;20026;-66
2022/12/19 05:38:33;;;;;;;30.83;11.30;;;;;;;-144.47;62.61;61608.44;5007208;28;20032;-69
2022/12/19 05:40:58;;;;;;;26.88;10.32;;;;;;;-144.47;62.44;61608.44;5010633;28;20034;-67
2022/12/19 05:43:24;;;;;;;28.23;9.77;;;;;;;-144.47;62.53;61610.41;5004071;28;20094;-69
2022/12/19 05:45:51;;;;;;;29.95;10.68;;;;;;;-144.47;62.64;61598.47;5009907;28;20021;-67
2022/12/19 05:48:16;;;;;;;29.52;8.63;;;;;;;-144.47;63.08;61588.53;5004889;28;20021;-67
2022/12/19 05:50:48;;;;;;;19.83;8.90;;;;;;;-144.47;63.21;61576.56;5002890;28;20136;-68
2022/12/19 05:53:13;;;;;;;21.85;8.85;;;;;;;-144.47;62.92;61588.53;5002301;28;20030;-68
2022/12/19 05:55:39;;;;;;;37.70;9.13;;;;;;;-144.47;62.91;61588.53;5000414;28;20362;-68
2022/12/19 05:58:04;;;;;;;27.92;9.73;;;;;;;-144.47;63.13;61570.59;4994815;28;20116;-70
2022/12/19 06:00:30;;;;;;;24.35;9.25;;;;;;;-144.47;63.24;61566.63;5005641;28;20408;-70
2022/12/19 06:02:55;;;;;;;29.85;9.82;;;;;;;-144.47;63.49;61634.31;5003230;28;20026;-71
2022/12/19 06:05:21;;;;;;;29.25;9.73;;;;;;;-144.47;63.78;61588.53;5000319;28;20432;-68
2022/12/19 06:07:46;;;;;;;29.90;11.02;;;;;;;-144.47;64.27;61622.38;5014419;28;20037;-69
2022/12/19 06:10:12;;;;;;;30.15;10.57;;;;;;;-144.47;64.34;61556.66;5000434;28;20602;-70
2022/12/19 06:12:37;;;;;;;27.20;9.85;;;;;;;-144.47;64.28;61594.50;4997827;28;20030;-68
2022/12/19 06:15:03;;;;;;;22.40;9.35;;;;;;;-144.47;64.05;61558.66;5005742;28;20033;-69
2022/12/19 06:17:28;;;;;;;29.25;10.55;;;;;;;-144.47;64.09;61544.72;5004308;28;20125;-68
2022/12/19 06:19:53;;;;;;;25.23;9.52;;;;;;;-144.47;64.05;61570.59;5007950;28;20034;-69
2022/12/19 06:22:19;;;;;;;24.42;9.38;;;;;;;-144.47;64.36;61616.41;5007132;28;20456;-70
2022/12/19 06:24:44;;;;;;;29.95;11.45;;;;;;;-144.47;64.24;61546.69;5007471;28;20416;-72
2022/12/19 06:27:10;;;;;;;27.48;9.95;;;;;;;-144.47;64.16;61598.47;5008354;28;20164;-68
2022/12/19 06:29:35;;;;;;;28.73;8.73;;;;;;;-144.47;63.81;61574.59;5008521;28;20058;-71
2022/12/19 06:32:01;;;;;;;34.53;10.35;;;;;;;-144.47;63.62;61536.75;5006834;28;20049;-68
2022/12/19 06:34:26;;;;;;;30.88;9.50;;;;;;;-144.47;63.48;61552.69;5006848;28;20021;-68
2022/12/19 06:36:54;;;;;;;21.48;10.75;;;;;;;-144.47;63.57;61518.81;5007510;28;20139;-71
2022/12/19 06:39:21;;;;;;;27.05;9.93;;;;;;;-144.47;63.47;61568.59;5007654;28;20088;-68
2022/12/19 06:44:31;;;;;;;21.70;8.38;;;;;;;-144.47;63.50;61552.69;5008280;28;20616;-68
2022/12/19 06:46:56;;;;;;;21.00;8.02;;;;;;;-144.47;63.26;61532.75;5007444;28;20128;-70
2022/12/19 06:49:22;;;;;;;25.23;8.98;;;;;;;-144.47;63.62;61534.75;4999293;28;20105;-70
2022/12/19 06:51:47;;;;;;;21.50;8.23;;;;;;;-144.47;63.88;61502.91;5000517;28;20093;-70
2022/12/19 06:54:13;;;;;;;24.25;9.32;;;;;;;-144.47;63.54;61494.94;5006589;28;20072;-72
2022/12/19 06:56:41;;;;;;;25.40;9.23;;;;;;;-144.47;63.67;61447.13;5008072;28;20021;-67
2022/12/19 06:59:09;;;;;;;25.27;9.32;;;;;;;-144.47;63.63;61375.47;5009169;28;20594;-72
2022/12/19 07:01:37;;;;;;;23.20;7.85;;;;;;;-144.47;64.21;61128.56;5009000;28;20572;-71
2022/12/19 07:04:02;;;;;;;20.92;8.35;;;;;;;-144.47;64.12;60782.16;5008464;28;20515;-70
2022/12/19 07:06:28;;;;;;;22.70;9.18;;;;;;;-144.47;63.70;60724.41;5008261;28;20036;-70
2022/12/19 07:08:53;;;;;;;21.42;9.02;;;;;;;-144.47;63.28;60831.91;4994642;28;20089;-69
2022/12/19 07:11:19;;;;;;;22.33;9.10;;;;;;;-144.47;62.48;60861.78;5007512;28;20116;-66
2022/12/19 07:13:44;;;;;;;28.45;8.95;;;;;;;-144.47;62.34;60875.72;5007606;28;20030;-69
2022/12/19 07:16:09;;;;;;;22.75;8.77;;;;;;;-144.47;61.71;60804.06;5008392;28;20022;-69
2022/12/19 07:18:38;;;;;;;28.17;9.63;;;;;;;-144.47;61.81;60752.28;5006568;28;20491;-68
2022/12/19 07:21:06;;;;;;;26.25;9.40;;;;;;;-144.47;62.63;60672.66;5008304;28;20045;-69
2022/12/19 07:23:34;;;;;;;24.17;10.40;;;;;;;-144.47;62.10;60587.06;5007169;28;20053;-68
2022/12/19 07:25:59;;;;;;;25.80;10.60;;;;;;;-144.47;62.31;60513.41;5006946;28;20581;-65
2022/12/19 07:28:25;;;;;;;27.98;10.35;;;;;;;-144.47;62.61;60433.78;5007836;28;20570;-69
2022/12/19 07:30:51;;;;;;;25.80;10.90;;;;;;;-144.47;63.35;60360.13;5008635;28;20034;-68
2022/12/19 07:33:16;;;;;;;24.00;10.25;;;;;;;-144.47;63.92;60274.53;5011458;28;20072;-70
2022/12/19 07:35:41;;;;;;;25.73;9.68;;;;;;;-144.47;63.82;60228.75;5011841;28;20026;-67
2022/12/19 07:38:07;;;;;;;22.80;9.27;;;;;;;-144.47;63.89;60190.94;5010394;28;20461;-71
2022/12/19 07:40:33;;;;;;;24.30;9.45;;;;;;;-144.47;63.01;60117.28;5011844;28;20029;-69
2022/12/19 07:43:03;;;;;;;20.65;8.68;;;;;;;-144.47;62.87;60133.22;5011495;28;20470;-70
2022/12/19 07:45:29;;;;;;;21.30;8.40;;;;;;;-144.47;62.63;60075.50;5011265;28;20022;-67
2022/12/19 07:47:58;;;;;;;32.92;9.93;;;;;;;-144.47;62.55;60055.59;5024122;28;20032;-71
2022/12/19 07:50:23;;;;;;;23.63;9.30;;;;;;;-144.47;64.15;60065.53;5000273;28;20022;-69
2022/12/19 07:52:49;;;;;;;27.80;10.00;;;;;;;-144.47;63.31;60017.78;5004494;28;20358;-68
2022/12/19 07:55:14;;;;;;;28.70;10.50;;;;;;;-144.47;62.52;59993.88;5011056;28;20067;-70
2022/12/19 07:57:39;;;;;;;28.52;10.50;;;;;;;-144.47;61.64;59944.13;5010467;28;20094;-67
2022/12/19 08:00:05;;;;;;;26.38;10.10;;;;;;;-144.47;61.85;59946.13;5010761;28;20417;-70
2022/12/19 08:02:31;;;;;;;23.48;9.75;;;;;;;-144.47;61.68;59940.16;5009695;28;20030;-71
2022/12/19 08:04:56;;;;;;;32.00;10.90;;;;;;;-144.47;61.71;59860.53;5011110;28;20105;-69
2022/12/19 08:07:21;;;;;;;23.70;9.25;;;;;;;-144.47;61.77;59852.56;4998723;28;20614;-68
2022/12/19 08:09:47;;;;;;;24.83;9.40;;;;;;;-144.47;61.76;59824.72;5010094;28;20029;-69
2022/12/19 08:12:12;;;;;;;25.63;10.50;;;;;;;-144.47;61.38;59786.91;5011504;28;20095;-71
2022/12/19 08:14:37;;;;;;;30.65;11.23;;;;;;;-144.47;61.12;59794.84;5010169;28;20486;-70
2022/12/19 08:17:03;;;;;;;29.73;12.32;;;;;;;-144.47;61.24;59784.91;5009784;28;20025;-69
2022/12/19 08:19:29;;;;;;;30.67;11.80;;;;;;;-144.47;61.76;59798.84;5010297;28;20053;-67
2022/12/19 08:21:54;;;;;;;26.25;10.00;;;;;;;-144.47;61.64;59755.06;5010983;28;20044;-71
2022/12/19 08:24:19;;;;;;;28.48;10.57;;;;;;;-144.47;62.26;59780.94;5010433;28;20030;-70
2022/12/19 08:26:45;;;;;;;26.15;9.70;;;;;;;-144.47;62.07;59755.06;5010045;28;20036;-69
2022/12/19 08:29:10;;;;;;;27.58;11.50;;;;;;;-144.47;63.13;59784.91;5009657;28;20088;-68
2022/12/19 08:31:36;;;;;;;26.05;10.88;;;;;;;-144.47;62.98;59759.03;5011134;28;20034;-70
2022/12/19 08:34:01;;;;;;;27.90;10.15;;;;;;;-144.47;63.26;59757.03;5011682;28;20615;-69
2022/12/19 08:36:27;;;;;;;22.90;10.25;;;;;;;-144.47;63.92;59786.91;5010458;28;20033;-70
2022/12/19 08:38:52;;;;;;;31.80;11.25;;;;;;;-144.47;64.19;59778.94;5009548;28;20556;-68
2022/12/19 08:41:18;;;;;;;28.05;9.98;;;;;;;-144.47;64.46;59755.06;5010376;28;20112;-66
2022/12/19 08:43:49;;;;;;;24.23;10.38;;;;;;;-144.47;65.64;59796.84;5009584;28;20026;-68
2022/12/19 08:46:14;;;;;;;26.33;10.15;;;;;;;-144.47;66.33;59842.63;5009846;28;20030;-70
2022/12/19 08:48:39;;;;;;;29.88;11.57;;;;;;;-144.47;66.46;59830.69;5007043;28;20033;-69
2022/12/19 08:51:07;;;;;;;26.70;10.50;;;;;;;-144.47;67.36;59840.63;5007172;28;20032;-69
2022/12/19 08:53:37;;;;;;;31.77;11.20;;;;;;;-144.47;67.94;59842.63;5007280;28;20030;-70
2022/12/19 08:56:10;;;;;;;26.75;11.35;;;;;;;-144.47;68.47;59814.75;5010851;28;20034;-68
2022/12/19 08:58:35;;;;;;;25.35;11.07;;;;;;;-144.47;69.34;59800.81;5009427;28;20017;-70
2022/12/19 09:01:03;;;;;;;25.38;10.95;;;;;;;-144.47;69.39;59876.47;5009620;28;20048;-66
2022/12/19 09:03:30;;;;;;;27.77;10.20;;;;;;;-144.47;70.61;59810.78;5008248;28;20037;-66
2022/12/19 09:06:01;;;;;;;29.88;12.13;;;;;;;-144.47;71.51;59816.75;5008667;28;20126;-68
2022/12/19 09:08:27;;;;;;;26.15;10.25;;;;;;;-144.47;72.28;59854.56;4993224;28;20519;-70
2022/12/19 09:11:01;;;;;;;31.83;11.48;;;;;;;-144.47;72.78;59868.50;5007669;28;20022;-67
2022/12/19 09:13:27;;;;;;;35.15;12.45;;;;;;;-144.47;73.79;59840.63;5024872;28;20033;-72
2022/12/19 09:16:07;;;;;;;35.70;11.50;;;;;;;-144.47;74.63;59810.78;5009866;28;20348;-68
2022/12/19 09:18:33;;;;;;;25.42;11.10;;;;;;;-144.47;74.42;59822.72;5009169;28;20116;-71
2022/12/19 09:20:59;;;;;;;29.02;11.23;;;;;;;-144.47;75.66;59836.66;5010610;28;20058;-71
2022/12/19 09:23:27;;;;;;;25.73;10.93;;;;;;;-144.47;74.98;59810.78;5008960;28;20030;-67
2022/12/19 09:26:00;;;;;;;20.98;10.10;;;;;;;-144.47;75.20;59792.88;5008304;28;20030;-71
2022/12/19 09:28:26;;;;;;;25.02;11.23;;;;;;;-144.47;75.46;59828.69;5009311;28;20065;-70
2022/12/19 09:30:56;;;;;;;29.20;12.23;;;;;;;-144.47;76.13;59840.63;5008765;28;20348;-68
2022/12/19 09:33:21;;;;;;;25.13;11.27;;;;;;;-144.47;76.91;59765.00;5009003;28;20025;-70
2022/12/19 09:35:51;;;;;;;30.88;11.60;;;;;;;-144.47;76.71;59767.00;4997162;28;20079;-70
2022/12/19 09:38:17;;;;;;;23.65;10.30;;;;;;;-144.47;77.20;59812.78;5009147;23;20065;-66
2022/12/19 09:40:57;;;;;;;32.38;10.73;;;;;;;-144.47;77.92;59848.59;4991331;28;20085;-69
2022/12/19 09:43:47;;;;;;;27.52;10.32;;;;;;;-144.47;78.31;59874.47;4991576;28;20026;-66
2022/12/19 09:46:23;;;;;;;31.05;12.55;;;;;;;-144.47;78.84;59898.34;4990607;28;20116;-67
2022/12/19 09:48:53;;;;;;;26.67;11.35;;;;;;;-144.47;79.61;59844.63;4984112;28;20045;-67
2022/12/19 09:51:31;;;;;;;30.58;11.60;;;;;;;-144.47;79.72;59878.44;4976998;28;20025;-67
2022/12/19 09:54:19;;;;;;;29.13;10.05;;;;;;;-144.47;80.16;59954.06;4989601;28;20057;-67
2022/12/19 09:56:46;;;;;;;30.57;11.53;;;;;;;-144.47;81.62;59958.06;4990515;28;20106;-68
2022/12/19 09:59:23;;;;;;;31.80;10.90;;;;;;;-144.47;81.65;60005.81;4990227;28;20045;-66
2022/12/19 10:02:02;;;;;;;28.30;10.48;;;;;;;-144.47;82.18;59932.19;4990368;28;20050;-66
2022/12/19 10:04:31;;;;;;;26.92;9.98;;;;;;;-144.47;82.57;59934.19;4989490;28;20026;-68
2022/12/19 10:06:56;;;;;;;30.73;10.90;;;;;;;-144.47;82.59;59950.09;4980998;28;20015;-68
2022/12/19 10:09:29;;;;;;;27.55;10.52;;;;;;;-144.47;83.91;60027.72;4984127;28;20033;-67
2022/12/19 10:12:07;;;;;;;25.38;10.18;;;;;;;-144.47;84.61;60065.53;4991138;28;20105;-66
2022/12/19 10:14:51;;;;;;;39.10;12.20;;;;;;;-144.47;85.00;60113.31;4990838;28;20508;-65
2022/12/19 10:17:37;;;;;;;22.00;9.18;;;;;;;-144.47;85.70;60145.16;4989790;28;20065;-65
2022/12/19 10:20:02;;;;;;;38.90;12.90;;;;;;;-144.47;86.05;60125.25;4990964;28;20108;-67
2022/12/19 10:23:09;;;;;;;28.95;11.30;;;;;;;-144.47;86.62;60149.13;4990266;28;20110;-67
2022/12/19 10:25:55;;;;;;;23.58;10.05;;;;;;;-144.47;87.30;60125.25;4967395;28;20043;-67
2022/12/19 10:28:31;;;;;;;26.67;10.73;;;;;;;-144.47;87.68;60111.31;4990821;28;20105;-67
2022/12/19 10:31:21;;;;;;;30.20;10.45;;;;;;;-144.47;88.11;60115.31;4992352;28;20026;-68
2022/12/19 10:34:15;;;;;;;27.20;11.07;;;;;;;-144.47;88.49;60119.28;4991099;28;20043;-67
2022/12/19 10:36:48;;;;;;;30.38;10.63;;;;;;;-144.47;88.57;60103.34;4984970;28;20108;-68
2022/12/19 10:39:29;;;;;;;26.52;11.15;;;;;;;-144.47;89.33;60043.66;4990734;28;20080;-67
2022/12/19 10:42:08;;;;;;;30.77;10.85;;;;;;;-144.47;89.81;60063.56;4992099;28;20185;-68
2022/12/19 10:44:39;;;;;;;31.88;11.70;;;;;;;-144.47;90.27;60097.38;4991246;28;20018;-68
2022/12/19 10:47:04;;;;;;;27.10;10.90;;;;;;;-144.47;90.50;60089.44;4991615;28;20527;-70
2022/12/19 10:49:29;;;;;;;30.10;11.68;;;;;;;-144.47;90.46;60097.38;4987100;28;20027;-65
2022/12/19 10:51:55;;;;;;;28.17;11.23;;;;;;;-144.47;90.67;60037.69;4979620;28;20022;-67
2022/12/19 10:54:47;;;;;;;25.95;11.80;;;;;;;-144.47;90.78;60065.53;4991374;28;20560;-68
2022/12/19 10:57:25;;;;;;;31.38;11.35;;;;;;;-144.47;91.20;60129.22;4983747;28;20038;-65
2022/12/19 11:00:04;;;;;;;31.88;12.52;;;;;;;-144.47;91.34;60149.13;4991256;28;20138;-68
2022/12/19 11:02:38;;;;;;;28.60;10.40;;;;;;;-144.47;91.70;60216.81;4990985;28;20042;-68
2022/12/19 11:05:30;;;;;;;30.60;11.88;;;;;;;-144.47;92.10;60200.88;4990468;28;20030;-67
2022/12/19 11:08:07;;;;;;;27.63;11.30;;;;;;;-144.47;92.07;60202.88;4977339;28;20518;-68
2022/12/19 11:10:42;;;;;;;31.42;12.30;;;;;;;-144.47;92.36;60198.91;4988380;28;20034;-67
2022/12/19 11:13:22;;;;;;;26.75;10.88;;;;;;;-144.47;92.36;60226.75;4991157;28;20531;-67
2022/12/19 11:15:58;;;;;;;26.35;11.52;;;;;;;-144.47;92.39;60214.81;4990581;28;20037;-67
2022/12/19 11:18:36;;;;;;;31.08;12.35;;;;;;;-144.47;93.06;60240.69;4986909;28;20033;-68
2022/12/19 11:21:02;;;;;;;33.60;12.20;;;;;;;-144.47;93.05;60252.63;4989990;28;20420;-67
2022/12/19 11:23:29;;;;;;;32.58;13.30;;;;;;;-144.47;92.65;60284.50;4989007;28;20022;-65